Time;durP1;ratioP1;P1;durP2;ratioP2;P2;SDS_P1;SDS_P2;PMS_P1;PMS_P2;Temp;Humidity;BMP_temperature;BMP_pressure;BME280_temperature;BME280_humidity;BME280_pressure;Samples;Min_cycle;Max_cycle;Signal;HPM_P1;HPM_P2
2020/12/23 00:00:00;;;;;;;0.80;0.77;;;11.80;99.90;;;;;;5093127;28;20943;-67
2020/12/23 00:02:26;;;;;;;0.60;0.60;;;11.80;99.90;;;;;;5093339;28;20490;-67
2020/12/23 00:04:52;;;;;;;0.80;0.80;;;11.80;99.90;;;;;;5093425;28;20432;-66
2020/12/23 00:07:19;;;;;;;0.80;0.80;;;11.90;99.90;;;;;;5093395;28;20497;-67
2020/12/23 00:09:46;;;;;;;1.33;0.70;;;11.80;99.90;;;;;;5093329;28;20439;-67
2020/12/23 00:12:12;;;;;;;0.70;0.70;;;11.90;99.90;;;;;;5093523;28;20456;-67
2020/12/23 00:14:38;;;;;;;0.80;0.80;;;11.80;99.90;;;;;;5093241;28;20524;-66
2020/12/23 00:17:05;;;;;;;0.60;0.60;;;11.80;99.90;;;;;;5092966;28;20810;-67
2020/12/23 00:19:33;;;;;;;0.70;0.70;;;11.90;99.90;;;;;;5093255;28;20467;-67
2020/12/23 00:21:59;;;;;;;1.00;0.70;;;12.00;99.90;;;;;;5093209;28;20468;-66
2020/12/23 00:24:25;;;;;;;0.97;0.80;;;11.90;99.90;;;;;;5093224;28;20577;-66
2020/12/23 00:26:52;;;;;;;0.80;0.80;;;11.90;99.90;;;;;;5093198;28;20440;-67
2020/12/23 00:29:19;;;;;;;1.00;0.70;;;11.90;99.90;;;;;;5093182;28;20458;-67
2020/12/23 00:31:45;;;;;;;0.80;0.80;;;11.80;99.90;;;;;;5093073;28;20468;-67
2020/12/23 00:34:11;;;;;;;1.73;0.60;;;11.80;99.90;;;;;;5093063;28;20483;-67
2020/12/23 00:36:37;;;;;;;0.63;0.63;;;11.90;99.90;;;;;;5093094;28;20485;-67
2020/12/23 00:39:04;;;;;;;1.00;0.90;;;11.90;99.90;;;;;;5092795;28;20446;-67
2020/12/23 00:41:30;;;;;;;0.60;0.60;;;12.00;99.90;;;;;;5092998;28;20464;-66
2020/12/23 00:43:57;;;;;;;0.70;0.70;;;12.00;99.90;;;;;;5093041;28;20804;-66
2020/12/23 00:46:23;;;;;;;0.70;0.70;;;12.00;99.90;;;;;;5093038;28;20448;-67
2020/12/23 00:48:49;;;;;;;1.37;0.80;;;12.00;99.90;;;;;;5092972;28;20446;-66
2020/12/23 00:51:16;;;;;;;0.60;0.60;;;12.00;99.90;;;;;;5092957;28;20830;-67
2020/12/23 00:53:43;;;;;;;0.50;0.50;;;12.00;99.90;;;;;;5092436;28;20540;-66
2020/12/23 00:56:10;;;;;;;0.60;0.60;;;12.10;99.90;;;;;;5092909;28;20448;-66
2020/12/23 00:58:36;;;;;;;0.60;0.60;;;12.00;99.90;;;;;;5092896;28;20455;-66
2020/12/23 01:01:04;;;;;;;0.80;0.67;;;12.00;99.90;;;;;;5094960;28;20440;-66
2020/12/23 01:03:30;;;;;;;0.60;0.60;;;11.90;99.90;;;;;;5096548;28;20468;-66
2020/12/23 01:05:57;;;;;;;0.60;0.60;;;12.00;99.90;;;;;;5096217;28;20440;-67
2020/12/23 01:08:23;;;;;;;0.60;0.60;;;12.00;99.90;;;;;;5096446;28;20443;-66
2020/12/23 01:10:49;;;;;;;0.50;0.50;;;12.00;99.90;;;;;;5096434;28;20439;-67
2020/12/23 01:13:15;;;;;;;0.70;0.70;;;12.00;99.90;;;;;;5096303;28;20443;-66
2020/12/23 01:15:41;;;;;;;0.80;0.60;;;12.00;99.90;;;;;;5096337;28;20451;-67
2020/12/23 01:18:08;;;;;;;0.60;0.60;;;12.00;99.90;;;;;;5095976;28;20955;-66
2020/12/23 01:20:35;;;;;;;0.60;0.60;;;12.10;99.90;;;;;;5095950;28;20443;-66
2020/12/23 01:23:01;;;;;;;0.60;0.60;;;12.10;99.90;;;;;;5096121;28;20471;-67
2020/12/23 01:25:29;;;;;;;0.60;0.60;;;12.10;99.90;;;;;;5096126;28;20493;-66
2020/12/23 01:27:55;;;;;;;0.60;0.60;;;12.20;99.90;;;;;;5096075;28;20451;-66
2020/12/23 01:30:21;;;;;;;0.40;0.40;;;12.10;99.90;;;;;;5096084;28;20921;-66
2020/12/23 01:32:48;;;;;;;0.53;0.53;;;12.10;99.90;;;;;;5095601;28;20471;-66
2020/12/23 01:35:15;;;;;;;0.60;0.50;;;12.20;99.90;;;;;;5095870;28;20483;-67
2020/12/23 01:37:41;;;;;;;1.43;0.50;;;12.20;99.90;;;;;;5095920;28;20452;-66
2020/12/23 01:40:07;;;;;;;1.37;0.57;;;12.20;99.90;;;;;;5095846;28;20451;-67
2020/12/23 01:42:34;;;;;;;0.53;0.53;;;12.20;99.90;;;;;;5095403;28;20918;-67
2020/12/23 01:45:01;;;;;;;0.50;0.50;;;12.30;99.90;;;;;;5095772;28;20436;-66
2020/12/23 01:47:29;;;;;;;0.50;0.50;;;12.30;99.90;;;;;;5095704;28;20444;-67
2020/12/23 01:49:55;;;;;;;0.40;0.40;;;12.30;99.90;;;;;;5095710;28;20464;-66
2020/12/23 01:52:23;;;;;;;0.50;0.50;;;12.30;99.90;;;;;;5095313;28;20487;-66
2020/12/23 01:54:50;;;;;;;0.70;0.60;;;12.30;99.90;;;;;;5095194;28;20479;-67
2020/12/23 01:57:17;;;;;;;2.20;0.50;;;12.40;99.90;;;;;;5095534;28;20448;-66
2020/12/23 01:59:45;;;;;;;0.50;0.50;;;12.40;99.90;;;;;;5095494;28;20445;-67
2020/12/23 02:02:28;;;;;;;0.50;0.50;;;12.50;99.90;;;;;;5095370;28;20506;-66
2020/12/23 02:04:55;;;;;;;0.70;0.70;;;12.60;99.90;;;;;;5095511;28;20427;-66
2020/12/23 02:07:23;;;;;;;0.80;0.60;;;12.60;99.90;;;;;;5095364;28;20444;-66
2020/12/23 02:09:51;;;;;;;0.50;0.50;;;12.70;99.90;;;;;;5094991;28;20958;-67
2020/12/23 02:12:18;;;;;;;0.50;0.50;;;12.60;99.90;;;;;;5094810;28;20997;-66
2020/12/23 02:14:44;;;;;;;2.20;0.50;;;12.60;99.90;;;;;;5095117;28;20529;-66
2020/12/23 02:17:10;;;;;;;1.00;1.00;;;12.50;99.90;;;;;;5094804;28;20931;-66
2020/12/23 02:19:49;;;;;;;0.43;0.43;;;12.50;99.90;;;;;;5095624;28;20444;-67
2020/12/23 02:22:17;;;;;;;0.60;0.60;;;12.50;99.90;;;;;;5094986;28;20499;-67
2020/12/23 02:24:45;;;;;;;0.50;0.50;;;12.50;99.90;;;;;;5094973;28;20600;-66
2020/12/23 02:27:11;;;;;;;0.60;0.60;;;12.50;99.90;;;;;;5094957;28;20440;-66
2020/12/23 02:29:40;;;;;;;0.70;0.40;;;12.50;99.90;;;;;;5094880;28;20440;-67
2020/12/23 02:32:06;;;;;;;0.50;0.50;;;12.50;99.90;;;;;;5094759;28;20464;-67
2020/12/23 02:34:32;;;;;;;0.60;0.60;;;12.40;99.90;;;;;;5094727;28;20483;-67
2020/12/23 02:36:59;;;;;;;0.40;0.40;;;12.40;99.90;;;;;;5094426;28;20477;-67
2020/12/23 02:39:25;;;;;;;0.50;0.50;;;12.50;99.90;;;;;;5094655;28;20500;-67
2020/12/23 02:41:56;;;;;;;0.40;0.40;;;12.60;99.90;;;;;;5094259;28;20815;-66
2020/12/23 02:44:22;;;;;;;0.50;0.50;;;12.70;99.90;;;;;;5094653;28;20443;-66
2020/12/23 02:46:55;;;;;;;0.40;0.40;;;12.70;99.90;;;;;;5094540;28;20493;-67
2020/12/23 02:49:21;;;;;;;0.50;0.50;;;12.60;99.90;;;;;;5094256;28;20428;-66
2020/12/23 02:51:47;;;;;;;0.50;0.50;;;12.60;99.90;;;;;;5093875;28;20950;-67
2020/12/23 02:54:14;;;;;;;0.40;0.40;;;12.50;99.90;;;;;;5094367;28;20472;-66
2020/12/23 02:56:40;;;;;;;0.50;0.50;;;12.40;99.90;;;;;;5094376;28;20440;-67
2020/12/23 02:59:07;;;;;;;0.50;0.50;;;12.40;99.90;;;;;;5094297;28;20452;-67
2020/12/23 03:01:33;;;;;;;0.40;0.40;;;12.40;99.90;;;;;;5094236;28;20471;-67
2020/12/23 03:04:00;;;;;;;0.50;0.50;;;12.40;99.90;;;;;;5094271;28;20436;-67
2020/12/23 03:06:26;;;;;;;0.77;0.60;;;12.30;99.90;;;;;;5094215;28;20467;-67
2020/12/23 03:08:52;;;;;;;0.97;0.50;;;12.30;99.90;;;;;;5094188;28;20444;-67
2020/12/23 03:11:18;;;;;;;0.60;0.60;;;12.30;99.90;;;;;;5093929;28;20468;-67
2020/12/23 03:13:44;;;;;;;1.63;1.27;;;12.30;99.90;;;;;;5094018;28;20480;-67
2020/12/23 03:16:11;;;;;;;0.60;0.60;;;12.30;99.90;;;;;;5094073;28;20443;-67
2020/12/23 03:18:39;;;;;;;0.40;0.40;;;12.30;99.90;;;;;;5093715;28;20440;-67
2020/12/23 03:21:05;;;;;;;0.60;0.50;;;12.30;99.90;;;;;;5093898;28;20451;-67
2020/12/23 03:23:31;;;;;;;0.50;0.50;;;12.30;99.90;;;;;;5093200;28;20443;-67
2020/12/23 03:25:58;;;;;;;0.40;0.40;;;12.40;99.90;;;;;;5093883;28;20450;-67
2020/12/23 03:28:24;;;;;;;0.50;0.50;;;12.40;99.90;;;;;;5093522;28;20943;-67
2020/12/23 03:30:50;;;;;;;0.50;0.43;;;12.30;99.90;;;;;;5093727;28;20493;-67
2020/12/23 03:33:17;;;;;;;0.50;0.50;;;12.40;99.90;;;;;;5093665;28;20440;-67
2020/12/23 03:35:44;;;;;;;0.50;0.50;;;12.40;99.90;;;;;;5093742;28;20837;-67
2020/12/23 03:38:10;;;;;;;0.53;0.53;;;12.50;99.90;;;;;;5093708;28;20505;-67
2020/12/23 03:40:37;;;;;;;0.50;0.50;;;12.40;99.90;;;;;;5093645;28;20451;-67
2020/12/23 03:43:03;;;;;;;0.60;0.60;;;12.40;99.90;;;;;;5093302;28;20521;-67
2020/12/23 03:45:30;;;;;;;0.70;0.70;;;12.30;99.90;;;;;;5093635;28;20494;-67
2020/12/23 03:47:56;;;;;;;0.90;0.60;;;12.20;99.90;;;;;;5093283;28;20447;-67
2020/12/23 03:50:23;;;;;;;0.70;0.70;;;12.10;99.90;;;;;;5093570;28;20443;-67
2020/12/23 03:52:49;;;;;;;1.10;0.50;;;12.20;99.90;;;;;;5092969;28;20562;-67
2020/12/23 03:55:16;;;;;;;3.57;0.50;;;12.20;99.90;;;;;;5093396;28;20480;-67
2020/12/23 03:57:42;;;;;;;0.40;0.40;;;12.20;99.90;;;;;;5093183;28;20470;-67
2020/12/23 04:00:10;;;;;;;1.03;0.50;;;12.20;99.90;;;;;;5093452;28;20493;-67
2020/12/23 04:02:36;;;;;;;0.60;0.50;;;12.20;99.90;;;;;;5093066;28;20490;-67
2020/12/23 04:05:03;;;;;;;0.50;0.50;;;12.20;99.90;;;;;;5093433;28;20443;-67
2020/12/23 04:07:30;;;;;;;0.40;0.40;;;12.20;99.90;;;;;;5093117;28;20440;-67
2020/12/23 04:09:57;;;;;;;5.13;0.60;;;12.10;99.90;;;;;;5093354;28;20435;-67
2020/12/23 04:12:23;;;;;;;0.50;0.50;;;12.10;99.90;;;;;;5092960;28;20460;-67
2020/12/23 04:14:49;;;;;;;0.60;0.57;;;12.10;99.90;;;;;;5093232;28;20532;-67
2020/12/23 04:17:15;;;;;;;0.50;0.50;;;12.10;99.90;;;;;;5093445;28;20801;-67
2020/12/23 04:19:41;;;;;;;0.50;0.50;;;12.20;99.90;;;;;;5092994;28;20957;-67
2020/12/23 04:22:08;;;;;;;0.50;0.50;;;12.30;99.90;;;;;;5093194;28;20460;-67
2020/12/23 04:24:35;;;;;;;0.60;0.50;;;12.30;99.90;;;;;;5093242;28;20534;-67
2020/12/23 04:27:01;;;;;;;0.50;0.50;;;12.20;99.90;;;;;;5093222;28;20439;-68
2020/12/23 04:29:27;;;;;;;0.57;0.50;;;12.20;99.90;;;;;;5092902;28;20444;-68
2020/12/23 04:31:53;;;;;;;0.50;0.50;;;12.10;99.90;;;;;;5093103;28;20495;-68
2020/12/23 04:34:20;;;;;;;0.60;0.60;;;12.00;99.90;;;;;;5093068;28;20846;-67
2020/12/23 04:36:46;;;;;;;0.53;0.53;;;11.90;99.90;;;;;;5096605;28;20443;-67
2020/12/23 04:39:12;;;;;;;0.50;0.50;;;11.90;99.90;;;;;;5096742;28;20440;-67
2020/12/23 04:41:39;;;;;;;0.93;0.60;;;11.90;99.90;;;;;;5096596;28;20459;-67
2020/12/23 04:44:06;;;;;;;1.07;0.53;;;11.80;99.90;;;;;;5096914;28;20439;-67
2020/12/23 04:46:34;;;;;;;0.73;0.67;;;11.80;99.90;;;;;;5096932;28;20489;-67
2020/12/23 04:49:01;;;;;;;1.27;0.50;;;11.70;99.90;;;;;;5096847;28;20466;-67
2020/12/23 04:51:30;;;;;;;1.10;0.53;;;11.60;99.90;;;;;;5096426;28;20971;-67
2020/12/23 04:53:56;;;;;;;0.50;0.50;;;11.60;99.90;;;;;;5096225;28;20526;-67
2020/12/23 04:56:25;;;;;;;0.60;0.60;;;11.60;99.90;;;;;;5096437;28;20481;-67
2020/12/23 04:58:53;;;;;;;0.70;0.70;;;11.50;99.90;;;;;;5096673;28;20440;-67
2020/12/23 05:01:19;;;;;;;0.60;0.60;;;11.50;99.90;;;;;;5096534;28;20509;-67
2020/12/23 05:03:45;;;;;;;0.87;0.57;;;11.50;99.90;;;;;;5096552;28;20450;-67
2020/12/23 05:06:12;;;;;;;0.50;0.50;;;11.50;99.90;;;;;;5096565;28;20783;-67
2020/12/23 05:08:38;;;;;;;1.27;0.70;;;11.40;99.90;;;;;;5096191;28;20444;-67
2020/12/23 05:11:06;;;;;;;2.50;0.60;;;11.40;99.90;;;;;;5096347;28;20475;-67
2020/12/23 05:13:33;;;;;;;0.80;0.50;;;11.40;99.90;;;;;;5096038;28;20476;-67
2020/12/23 05:16:00;;;;;;;0.80;0.80;;;11.40;99.90;;;;;;5096355;28;20444;-67
2020/12/23 05:18:31;;;;;;;0.57;0.57;;;11.50;99.90;;;;;;5096322;28;20440;-67
2020/12/23 05:20:58;;;;;;;0.70;0.70;;;11.50;99.90;;;;;;5095933;28;20935;-67
2020/12/23 05:23:24;;;;;;;0.67;0.50;;;11.40;99.90;;;;;;5096211;28;20444;-67
2020/12/23 05:25:50;;;;;;;0.50;0.50;;;11.40;99.90;;;;;;5096168;28;20440;-67
2020/12/23 05:28:17;;;;;;;1.03;0.57;;;11.50;99.90;;;;;;5096161;28;20443;-67
2020/12/23 05:30:44;;;;;;;0.57;0.57;;;11.50;99.90;;;;;;5096072;28;20783;-67
2020/12/23 05:33:11;;;;;;;0.57;0.57;;;11.50;99.90;;;;;;5095979;28;20487;-67
2020/12/23 05:35:38;;;;;;;1.10;0.53;;;11.50;99.90;;;;;;5095939;28;20484;-67
2020/12/23 05:38:04;;;;;;;0.70;0.67;;;11.50;99.90;;;;;;5095899;28;20455;-67
2020/12/23 05:40:31;;;;;;;0.50;0.50;;;11.40;99.90;;;;;;5095825;28;20436;-67
2020/12/23 05:42:58;;;;;;;1.57;0.60;;;11.40;99.90;;;;;;5095735;28;20490;-67
2020/12/23 05:45:26;;;;;;;0.90;0.60;;;11.30;99.90;;;;;;5095720;28;20444;-67
2020/12/23 05:47:53;;;;;;;0.50;0.50;;;11.30;99.90;;;;;;5095492;28;20478;-67
2020/12/23 05:50:21;;;;;;;0.60;0.60;;;11.40;99.90;;;;;;5095713;28;20500;-67
2020/12/23 05:52:53;;;;;;;0.60;0.60;;;11.50;99.90;;;;;;5094990;28;21009;-67
2020/12/23 05:55:19;;;;;;;0.57;0.57;;;11.50;99.90;;;;;;5095509;28;20471;-67
2020/12/23 05:57:45;;;;;;;0.50;0.50;;;11.50;99.90;;;;;;5095507;28;20439;-67
2020/12/23 06:00:12;;;;;;;0.60;0.53;;;11.60;99.90;;;;;;5095292;28;20447;-67
2020/12/23 06:02:50;;;;;;;1.07;0.50;;;11.60;99.90;;;;;;5095368;28;20464;-67
2020/12/23 06:05:25;;;;;;;1.40;0.60;;;11.70;99.90;;;;;;5095402;28;20787;-67
2020/12/23 06:07:52;;;;;;;0.53;0.53;;;11.60;99.90;;;;;;5095363;28;20424;-67
2020/12/23 06:10:23;;;;;;;1.20;0.67;;;11.70;99.90;;;;;;5095261;28;20440;-68
2020/12/23 06:12:55;;;;;;;0.60;0.60;;;11.70;99.90;;;;;;5094876;28;20472;-68
2020/12/23 06:15:31;;;;;;;1.00;0.60;;;11.70;99.90;;;;;;5095139;28;20517;-68
2020/12/23 06:18:01;;;;;;;1.23;0.70;;;11.60;99.90;;;;;;5094799;28;20931;-68
2020/12/23 06:20:31;;;;;;;0.60;0.50;;;11.60;99.90;;;;;;5095087;28;20428;-68
2020/12/23 06:22:58;;;;;;;0.60;0.60;;;11.60;99.90;;;;;;5094942;28;20463;-68
2020/12/23 06:25:25;;;;;;;0.60;0.60;;;11.70;99.90;;;;;;5094968;28;20439;-68
2020/12/23 06:27:53;;;;;;;0.60;0.60;;;11.60;99.90;;;;;;5094910;28;20444;-68
2020/12/23 06:30:21;;;;;;;0.70;0.70;;;11.60;99.90;;;;;;5095095;28;20444;-68
2020/12/23 06:32:47;;;;;;;0.70;0.70;;;11.70;99.90;;;;;;5094330;28;20979;-68
2020/12/23 06:35:14;;;;;;;0.70;0.70;;;11.70;99.90;;;;;;5094396;28;21007;-68
2020/12/23 06:37:41;;;;;;;0.70;0.70;;;11.70;99.90;;;;;;5094413;28;20904;-68
2020/12/23 06:40:08;;;;;;;0.67;0.67;;;11.70;99.90;;;;;;5094695;28;20447;-69
2020/12/23 06:42:36;;;;;;;0.60;0.60;;;11.70;99.90;;;;;;5094855;28;20887;-68
2020/12/23 06:45:10;;;;;;;0.60;0.57;;;11.70;99.90;;;;;;5094616;28;20450;-68
2020/12/23 06:47:38;;;;;;;0.50;0.50;;;11.60;99.90;;;;;;5094590;28;20798;-68
2020/12/23 06:50:15;;;;;;;0.50;0.50;;;11.60;99.90;;;;;;5094525;28;20480;-68
2020/12/23 06:52:44;;;;;;;1.00;0.73;;;11.60;99.90;;;;;;5094142;28;20533;-68
2020/12/23 06:55:11;;;;;;;0.83;0.67;;;11.60;99.90;;;;;;5094324;28;20479;-68
2020/12/23 06:57:56;;;;;;;0.83;0.60;;;11.60;99.90;;;;;;5093664;28;20509;-68
2020/12/23 07:00:41;;;;;;;0.70;0.70;;;11.60;99.90;;;;;;5094020;28;20877;-68
2020/12/23 07:03:09;;;;;;;0.70;0.70;;;11.60;99.90;;;;;;5094154;28;20466;-67
2020/12/23 07:05:43;;;;;;;0.80;0.70;;;11.70;99.90;;;;;;5094235;28;20444;-68
2020/12/23 07:08:13;;;;;;;0.60;0.60;;;11.60;99.90;;;;;;5093901;28;20798;-68
2020/12/23 07:10:41;;;;;;;0.70;0.70;;;11.60;99.90;;;;;;5094130;28;20475;-68
2020/12/23 07:13:09;;;;;;;0.60;0.60;;;11.60;99.90;;;;;;5093728;28;21036;-68
2020/12/23 07:15:37;;;;;;;0.60;0.60;;;11.60;99.90;;;;;;5093670;28;21045;-68
2020/12/23 07:18:05;;;;;;;0.60;0.60;;;11.70;99.90;;;;;;5094260;28;20439;-68
2020/12/23 07:20:34;;;;;;;0.60;0.60;;;11.70;99.90;;;;;;5093975;28;20439;-68
2020/12/23 07:23:05;;;;;;;1.53;0.70;;;11.70;99.90;;;;;;5093847;28;20460;-68
2020/12/23 07:25:39;;;;;;;0.70;0.70;;;11.60;99.90;;;;;;5093896;28;20464;-68
2020/12/23 07:28:10;;;;;;;0.50;0.50;;;11.60;99.90;;;;;;5093850;28;20427;-68
2020/12/23 07:30:39;;;;;;;0.60;0.60;;;11.60;99.90;;;;;;5093796;28;20474;-68
2020/12/23 07:33:08;;;;;;;1.37;0.80;;;11.70;99.90;;;;;;5093657;28;20474;-68
2020/12/23 07:35:35;;;;;;;0.60;0.60;;;11.60;99.90;;;;;;5093297;28;21002;-68
2020/12/23 07:38:03;;;;;;;0.90;0.60;;;11.60;99.90;;;;;;5093657;28;20451;-68
2020/12/23 07:40:30;;;;;;;0.60;0.60;;;11.60;99.90;;;;;;5093660;28;20859;-68
2020/12/23 07:42:58;;;;;;;0.60;0.60;;;11.70;99.90;;;;;;5093642;28;20490;-68
2020/12/23 07:45:26;;;;;;;0.83;0.60;;;11.80;99.90;;;;;;5093639;28;20436;-69
2020/12/23 07:47:54;;;;;;;0.70;0.70;;;11.80;99.90;;;;;;5093305;28;20959;-68
2020/12/23 07:50:21;;;;;;;0.60;0.60;;;11.80;99.90;;;;;;5093568;28;20524;-68
2020/12/23 07:52:47;;;;;;;0.70;0.70;;;11.80;99.90;;;;;;5093089;28;20483;-68
2020/12/23 07:55:13;;;;;;;0.70;0.70;;;11.80;99.90;;;;;;5093081;28;20534;-68
2020/12/23 07:57:40;;;;;;;0.70;0.60;;;11.80;99.90;;;;;;5093277;28;20969;-68
2020/12/23 08:00:09;;;;;;;0.70;0.70;;;11.70;99.90;;;;;;5093472;28;20443;-68
2020/12/23 08:02:35;;;;;;;0.60;0.60;;;11.70;99.90;;;;;;5093341;28;20470;-68
2020/12/23 08:05:03;;;;;;;0.90;0.77;;;11.60;99.90;;;;;;5093395;28;20542;-68
2020/12/23 08:07:29;;;;;;;0.50;0.50;;;11.70;99.90;;;;;;5093378;28;20443;-68
2020/12/23 08:09:55;;;;;;;0.60;0.60;;;11.70;99.90;;;;;;5095289;28;20444;-68
2020/12/23 08:12:22;;;;;;;1.03;0.50;;;11.80;99.90;;;;;;5097211;28;20997;-68
2020/12/23 08:14:49;;;;;;;0.70;0.60;;;11.90;99.90;;;;;;5097488;28;20840;-68
2020/12/23 08:17:22;;;;;;;0.63;0.63;;;12.00;99.90;;;;;;5097456;28;20447;-68
2020/12/23 08:20:03;;;;;;;0.50;0.50;;;12.00;99.90;;;;;;5097420;28;20463;-68
2020/12/23 08:22:29;;;;;;;2.53;0.70;;;12.10;99.90;;;;;;5097337;28;20471;-68
2020/12/23 08:25:07;;;;;;;0.53;0.53;;;12.10;99.90;;;;;;5097216;28;20446;-68
2020/12/23 08:27:34;;;;;;;2.43;0.60;;;12.10;99.90;;;;;;5097339;28;20435;-68
2020/12/23 08:30:03;;;;;;;0.60;0.60;;;12.10;99.90;;;;;;5097247;28;20446;-68
2020/12/23 08:32:36;;;;;;;0.50;0.50;;;12.20;99.90;;;;;;5096792;28;20466;-68
2020/12/23 08:35:05;;;;;;;0.60;0.60;;;12.20;99.90;;;;;;5096786;28;20467;-68
2020/12/23 08:37:35;;;;;;;0.67;0.67;;;12.30;99.90;;;;;;5097111;28;20443;-68
2020/12/23 08:40:03;;;;;;;0.90;0.70;;;12.30;99.90;;;;;;5097950;28;20471;-68
2020/12/23 08:42:30;;;;;;;0.60;0.60;;;12.40;99.90;;;;;;5097187;28;20479;-68
2020/12/23 08:44:57;;;;;;;0.70;0.70;;;12.40;99.90;;;;;;5096967;28;20777;-68
2020/12/23 08:47:26;;;;;;;0.50;0.50;;;12.40;99.90;;;;;;5096877;28;20440;-68
2020/12/23 08:49:55;;;;;;;0.60;0.60;;;12.50;99.90;;;;;;5097244;28;20785;-68
2020/12/23 08:52:24;;;;;;;1.70;1.03;;;12.60;99.90;;;;;;5096433;28;20491;-68
2020/12/23 08:54:51;;;;;;;0.50;0.50;;;12.70;99.90;;;;;;5096354;28;20820;-68
2020/12/23 08:57:23;;;;;;;0.50;0.50;;;12.70;99.90;;;;;;5096626;28;20444;-68
2020/12/23 08:59:49;;;;;;;0.60;0.47;;;12.80;99.90;;;;;;5096667;28;20485;-68
2020/12/23 09:02:16;;;;;;;0.60;0.57;;;12.80;99.90;;;;;;5096550;28;20533;-68
2020/12/23 09:04:43;;;;;;;0.40;0.40;;;12.80;99.90;;;;;;5096606;28;20443;-68
2020/12/23 09:07:10;;;;;;;0.50;0.50;;;12.80;99.90;;;;;;5096526;28;20444;-68
2020/12/23 09:09:36;;;;;;;0.60;0.57;;;12.90;99.90;;;;;;5096495;28;20440;-68
2020/12/23 09:12:04;;;;;;;0.63;0.63;;;12.90;99.90;;;;;;5096399;28;20475;-68
2020/12/23 09:14:33;;;;;;;0.60;0.60;;;12.90;99.90;;;;;;5095961;28;20845;-68
2020/12/23 09:17:05;;;;;;;0.60;0.50;;;12.90;99.90;;;;;;5096351;28;20505;-68
2020/12/23 09:19:54;;;;;;;0.90;0.77;;;12.90;99.90;;;;;;5096338;28;20429;-68
2020/12/23 09:22:33;;;;;;;0.70;0.60;;;13.00;99.90;;;;;;5095148;28;20978;-68
2020/12/23 09:25:17;;;;;;;0.67;0.60;;;13.10;99.90;;;;;;5096156;28;20432;-69
2020/12/23 09:27:44;;;;;;;0.90;0.60;;;13.20;99.90;;;;;;5095833;28;20922;-68
2020/12/23 09:30:11;;;;;;;1.00;0.60;;;13.30;99.90;;;;;;5096071;28;20497;-68
2020/12/23 09:32:51;;;;;;;1.07;0.60;;;13.30;99.90;;;;;;5095700;28;21040;-68
2020/12/23 09:35:19;;;;;;;0.73;0.73;;;13.30;99.90;;;;;;5095980;28;20463;-68
2020/12/23 09:37:47;;;;;;;1.40;0.63;;;13.30;99.90;;;;;;5095954;28;20474;-68
2020/12/23 09:40:14;;;;;;;0.60;0.60;;;13.30;99.90;;;;;;5095907;28;20451;-68
2020/12/23 09:42:40;;;;;;;0.60;0.60;;;13.40;99.90;;;;;;5095733;28;20474;-68
2020/12/23 09:45:07;;;;;;;0.67;0.67;;;13.50;99.90;;;;;;5095844;28;20428;-68
2020/12/23 09:47:34;;;;;;;0.73;0.63;;;13.60;99.90;;;;;;5095541;28;20424;-68
2020/12/23 09:50:02;;;;;;;0.60;0.60;;;13.70;99.90;;;;;;5095446;28;20807;-68
2020/12/23 09:52:29;;;;;;;0.60;0.60;;;13.80;99.90;;;;;;5095194;28;20829;-68
2020/12/23 09:54:56;;;;;;;0.67;0.67;;;13.80;99.90;;;;;;5095168;28;21021;-69
2020/12/23 09:57:22;;;;;;;0.63;0.63;;;13.90;99.90;;;;;;5096137;28;20448;-68
2020/12/23 09:59:48;;;;;;;0.67;0.60;;;13.90;99.90;;;;;;5095539;28;20489;-68
2020/12/23 10:02:14;;;;;;;1.13;0.70;;;14.00;99.90;;;;;;5095092;28;21033;-69
2020/12/23 10:04:40;;;;;;;0.77;0.77;;;14.00;99.90;;;;;;5095403;28;20447;-68
2020/12/23 10:07:09;;;;;;;0.70;0.70;;;14.10;99.90;;;;;;5095351;28;20440;-69
2020/12/23 10:09:35;;;;;;;1.90;0.87;;;14.10;99.90;;;;;;5095272;28;20452;-68
2020/12/23 10:12:02;;;;;;;0.60;0.60;;;14.10;99.90;;;;;;5095191;28;20467;-68
2020/12/23 10:14:28;;;;;;;1.00;0.80;;;14.10;99.90;;;;;;5095108;28;20525;-68
2020/12/23 10:16:54;;;;;;;0.97;0.83;;;14.10;99.90;;;;;;5095025;28;20440;-68
2020/12/23 10:19:21;;;;;;;1.53;1.43;;;14.00;99.90;;;;;;5094769;28;20470;-68
2020/12/23 10:21:47;;;;;;;0.80;0.80;;;14.00;99.90;;;;;;5095028;28;20471;-68
2020/12/23 10:24:13;;;;;;;4.83;0.77;;;14.00;99.90;;;;;;5095010;28;20444;-68
2020/12/23 10:26:40;;;;;;;0.63;0.63;;;13.90;99.90;;;;;;5094697;28;20435;-68
2020/12/23 10:29:08;;;;;;;0.73;0.70;;;13.90;99.90;;;;;;5094655;28;20451;-68
2020/12/23 10:31:34;;;;;;;0.83;0.63;;;13.90;99.90;;;;;;5094793;28;20873;-68
2020/12/23 10:34:00;;;;;;;0.80;0.80;;;13.90;99.90;;;;;;5093780;28;20785;-68
2020/12/23 10:36:26;;;;;;;0.60;0.60;;;13.80;99.90;;;;;;5094855;28;20444;-68
2020/12/23 10:38:53;;;;;;;0.60;0.60;;;13.80;99.90;;;;;;5094781;28;20518;-68
2020/12/23 10:41:19;;;;;;;0.60;0.60;;;13.90;99.90;;;;;;5094654;28;20471;-68
2020/12/23 10:43:45;;;;;;;0.60;0.60;;;14.10;99.90;;;;;;5095183;28;20439;-68
2020/12/23 10:46:12;;;;;;;0.60;0.50;;;14.50;99.90;;;;;;5094652;28;20448;-68
2020/12/23 10:48:38;;;;;;;0.60;0.60;;;14.80;99.90;;;;;;5094599;28;20497;-68
2020/12/23 10:51:05;;;;;;;1.17;0.50;;;15.30;99.90;;;;;;5094455;28;20501;-68
2020/12/23 10:53:31;;;;;;;0.67;0.67;;;15.80;99.90;;;;;;5093986;28;20476;-69
2020/12/23 10:55:57;;;;;;;0.50;0.50;;;16.10;99.90;;;;;;5094261;28;20483;-68
2020/12/23 10:58:24;;;;;;;0.50;0.50;;;16.20;99.90;;;;;;5094412;28;20451;-68
2020/12/23 11:00:50;;;;;;;0.63;0.63;;;16.20;99.90;;;;;;5094368;28;20532;-69
2020/12/23 11:03:17;;;;;;;2.33;0.70;;;16.40;99.90;;;;;;5094263;28;20467;-68
2020/12/23 11:05:43;;;;;;;0.60;0.60;;;16.50;99.90;;;;;;5094271;28;20440;-68
2020/12/23 11:08:09;;;;;;;0.60;0.60;;;16.30;99.90;;;;;;5093924;28;20807;-69
2020/12/23 11:10:36;;;;;;;0.60;0.60;;;16.20;99.90;;;;;;5094144;28;20568;-69
2020/12/23 11:13:02;;;;;;;0.60;0.60;;;16.00;99.90;;;;;;5094111;28;20471;-68
2020/12/23 11:15:28;;;;;;;0.60;0.60;;;15.60;99.90;;;;;;5094059;28;20459;-68
2020/12/23 11:17:54;;;;;;;0.60;0.60;;;15.40;99.90;;;;;;5094091;28;20428;-68
2020/12/23 11:20:21;;;;;;;0.93;0.80;;;15.10;99.90;;;;;;5094040;28;20432;-68
2020/12/23 11:22:48;;;;;;;0.60;0.60;;;14.90;99.90;;;;;;5093949;28;20467;-68
2020/12/23 11:25:14;;;;;;;1.07;0.70;;;14.90;99.90;;;;;;5093649;28;20968;-68
2020/12/23 11:27:41;;;;;;;0.60;0.60;;;14.90;99.90;;;;;;5093862;28;20431;-68
2020/12/23 11:30:08;;;;;;;0.60;0.60;;;14.80;99.90;;;;;;5093871;28;20424;-68
2020/12/23 11:32:34;;;;;;;0.87;0.60;;;14.70;99.90;;;;;;5093753;28;20471;-68
2020/12/23 11:35:00;;;;;;;0.60;0.60;;;14.70;99.90;;;;;;5093758;28;20802;-69
2020/12/23 11:37:30;;;;;;;1.90;0.70;;;14.70;99.90;;;;;;5093778;28;20437;-68
2020/12/23 11:39:56;;;;;;;0.70;0.60;;;14.80;99.90;;;;;;5093650;28;20493;-68
2020/12/23 11:42:22;;;;;;;0.60;0.60;;;14.80;99.90;;;;;;5093641;28;20471;-68
2020/12/23 11:44:50;;;;;;;0.50;0.50;;;14.90;99.90;;;;;;5093284;28;20424;-68
2020/12/23 11:47:16;;;;;;;0.60;0.50;;;14.90;99.90;;;;;;5093482;28;20505;-68
2020/12/23 11:49:42;;;;;;;0.50;0.50;;;15.00;99.90;;;;;;5093638;28;20794;-68
2020/12/23 11:52:09;;;;;;;0.80;0.60;;;14.90;99.90;;;;;;5093171;28;20495;-69
2020/12/23 11:54:37;;;;;;;1.80;0.70;;;14.90;99.90;;;;;;5093489;28;20482;-68
2020/12/23 11:57:04;;;;;;;1.33;0.57;;;14.90;99.90;;;;;;5093555;28;20435;-69
2020/12/23 11:59:30;;;;;;;0.70;0.70;;;14.90;99.90;;;;;;5093476;28;20766;-68
2020/12/23 12:01:56;;;;;;;1.53;0.60;;;14.80;99.90;;;;;;5093285;28;20464;-68
2020/12/23 12:04:22;;;;;;;0.67;0.67;;;14.70;99.90;;;;;;5093500;28;20822;-68
2020/12/23 12:06:54;;;;;;;0.87;0.80;;;14.70;99.90;;;;;;5093148;28;20439;-68
2020/12/23 12:09:21;;;;;;;0.67;0.60;;;14.60;99.90;;;;;;5093453;28;20432;-68
2020/12/23 12:11:51;;;;;;;1.00;0.60;;;14.50;99.90;;;;;;5093022;28;20499;-68
2020/12/23 12:14:17;;;;;;;0.60;0.60;;;14.40;99.90;;;;;;5093011;28;20804;-69
2020/12/23 12:16:44;;;;;;;0.70;0.70;;;14.40;99.90;;;;;;5093023;28;20428;-69
2020/12/23 12:19:10;;;;;;;1.10;0.70;;;14.30;99.90;;;;;;5093304;28;20431;-68
2020/12/23 12:21:37;;;;;;;0.60;0.60;;;14.40;99.90;;;;;;5093253;28;20459;-68
2020/12/23 12:24:03;;;;;;;0.70;0.70;;;14.40;99.90;;;;;;5093281;28;20420;-68
2020/12/23 12:26:30;;;;;;;0.93;0.70;;;14.50;99.90;;;;;;5093223;28;20420;-68
2020/12/23 12:28:57;;;;;;;0.70;0.60;;;14.50;99.90;;;;;;5093141;28;20432;-69
2020/12/23 12:31:24;;;;;;;1.20;0.90;;;14.60;99.90;;;;;;5093146;28;20460;-69
2020/12/23 12:33:50;;;;;;;0.70;0.70;;;14.60;99.90;;;;;;5093189;28;20474;-69
2020/12/23 12:36:16;;;;;;;0.60;0.60;;;14.50;99.90;;;;;;5093182;28;20464;-69
2020/12/23 12:38:42;;;;;;;0.70;0.70;;;14.50;99.90;;;;;;5093190;28;20428;-69
2020/12/23 12:41:09;;;;;;;1.10;0.60;;;14.50;99.90;;;;;;5093012;28;20481;-68
2020/12/23 12:43:35;;;;;;;0.60;0.60;;;14.50;99.90;;;;;;5093133;28;20481;-68
2020/12/23 12:46:02;;;;;;;0.70;0.70;;;14.60;99.90;;;;;;5092807;28;20478;-68
2020/12/23 12:48:28;;;;;;;2.10;0.57;;;14.60;99.90;;;;;;5092774;28;20428;-68